createdAt,value
2019-05-30T00:05:44.402Z,24.51
2019-05-30T00:15:47.985Z,23.59
2019-05-30T00:25:51.704Z,22.72
2019-05-30T00:35:59.955Z,22.36
2019-05-30T00:46:04.221Z,22.14
2019-05-30T00:56:08.193Z,21.89
2019-05-30T01:06:11.762Z,21.70
2019-05-30T01:16:15.382Z,21.52
2019-05-30T01:26:18.947Z,21.41
2019-05-30T01:36:22.522Z,21.35
2019-05-30T01:46:26.069Z,21.28
2019-05-30T01:56:29.606Z,21.19
2019-05-30T02:06:33.187Z,21.08
2019-05-30T02:16:36.763Z,21.05
2019-05-30T02:26:40.303Z,20.96
2019-05-30T02:36:43.898Z,20.85
2019-05-30T02:46:47.491Z,20.78
2019-05-30T02:56:51.410Z,20.70
2019-05-30T03:06:54.990Z,20.60
2019-05-30T03:16:58.560Z,20.52
2019-05-30T03:27:02.597Z,20.47
2019-05-30T03:37:13.957Z,20.68
2019-05-30T03:47:13.797Z,25.10
2019-05-30T03:57:26.067Z,26.89
2019-05-30T04:07:29.639Z,26.40
2019-05-30T04:17:33.384Z,25.81
2019-05-30T04:27:38.360Z,25.43
2019-05-30T04:37:41.926Z,25.11
2019-05-30T04:47:45.502Z,24.84
2019-05-30T04:57:49.074Z,24.54
2019-05-30T05:07:52.623Z,24.37
2019-05-30T05:17:56.193Z,24.19
2019-05-30T05:27:59.775Z,24.16
2019-05-30T05:38:03.319Z,24.15
2019-05-30T05:48:07.477Z,24.13
2019-05-30T05:58:11.051Z,24.19
2019-05-30T06:08:14.619Z,24.21
2019-05-30T06:18:18.194Z,24.21
2019-05-30T06:28:22.013Z,24.23
2019-05-30T06:38:25.665Z,24.26
2019-05-30T06:48:29.223Z,24.39
2019-05-30T06:58:46.949Z,24.42
2019-05-30T07:08:38.097Z,24.44
2019-05-30T07:18:41.761Z,24.49
2019-05-30T07:28:45.329Z,24.59
2019-05-30T07:38:48.903Z,24.64
2019-05-30T07:48:52.450Z,24.81
2019-05-30T07:58:56.017Z,24.89
2019-05-30T08:08:59.602Z,24.96
2019-05-30T08:19:03.178Z,24.91
2019-05-30T08:29:07.327Z,24.95
2019-05-30T08:39:10.904Z,24.99
2019-05-30T08:49:14.531Z,24.91
2019-05-30T08:59:18.093Z,24.88
2019-05-30T09:09:21.622Z,25.22
2019-05-30T09:19:25.239Z,24.86
2019-05-30T09:29:28.827Z,24.46
2019-05-30T09:39:32.395Z,24.39
2019-05-30T09:49:35.963Z,24.43
2019-05-30T09:59:39.560Z,24.47
2019-05-30T10:09:44.533Z,24.13
2019-05-30T10:19:48.819Z,23.99
2019-05-30T10:29:53.366Z,23.90
2019-05-30T10:39:57.782Z,23.75
2019-05-30T10:50:04.981Z,23.73
2019-05-30T11:00:11.476Z,23.71
2019-05-30T11:10:33.987Z,23.73
2019-05-30T11:20:37.532Z,23.74
2019-05-30T11:30:41.138Z,23.72
2019-05-30T11:40:45.607Z,23.70
2019-05-30T11:50:50.405Z,23.65
2019-05-30T12:00:54.763Z,23.64
2019-05-30T12:10:59.381Z,23.68
2019-05-30T12:21:03.053Z,23.59
2019-05-30T12:31:06.934Z,23.59
2019-05-30T12:41:10.563Z,23.58
2019-05-30T12:51:14.121Z,23.62
2019-05-30T13:01:17.689Z,23.60
2019-05-30T13:11:21.276Z,23.63
2019-05-30T13:21:24.827Z,23.63
2019-05-30T13:31:28.371Z,23.65
2019-05-30T13:41:31.942Z,23.63
2019-05-30T13:51:35.521Z,23.61
2019-05-30T14:01:39.098Z,23.62
2019-05-30T14:11:42.670Z,23.62
2019-05-30T14:21:46.247Z,23.63
2019-05-30T14:31:49.831Z,23.63
2019-05-30T14:41:53.421Z,23.61
2019-05-30T14:51:57.064Z,23.61
2019-05-30T15:02:00.643Z,23.63
2019-05-30T15:12:04.892Z,23.63
2019-05-30T15:22:09.526Z,23.62
2019-05-30T15:32:14.495Z,23.63
2019-05-30T15:42:18.204Z,23.64
2019-05-30T15:52:21.767Z,23.65
2019-05-30T16:02:25.335Z,23.67
2019-05-30T16:12:28.953Z,23.67
2019-05-30T16:22:32.580Z,23.67
2019-05-30T16:32:36.136Z,23.66
2019-05-30T16:42:39.735Z,23.63
2019-05-30T16:52:43.535Z,23.64
2019-05-30T17:02:47.116Z,23.65
2019-05-30T17:12:50.682Z,23.63
2019-05-30T17:22:54.227Z,23.62
2019-05-30T17:32:57.793Z,23.54
2019-05-30T17:43:01.360Z,23.52
2019-05-30T17:53:05.009Z,23.51
2019-05-30T18:03:08.927Z,23.48
2019-05-30T18:13:12.504Z,23.22
2019-05-30T18:23:16.527Z,23.08
2019-05-30T18:33:20.075Z,22.76
2019-05-30T18:43:24.677Z,22.61
2019-05-30T18:53:28.366Z,22.62
2019-05-30T19:03:33.358Z,22.55
2019-05-30T19:13:37.375Z,22.54
2019-05-30T19:23:41.100Z,22.58
2019-05-30T19:33:44.706Z,23.31
2019-05-30T19:43:48.343Z,25.09
2019-05-30T19:53:51.944Z,24.65
2019-05-30T20:03:55.518Z,23.79
2019-05-30T20:13:59.171Z,23.30
2019-05-30T20:24:02.733Z,23.31
2019-05-30T20:34:06.310Z,23.15
2019-05-30T20:44:09.852Z,23.11
2019-05-30T20:54:13.403Z,22.99
2019-05-30T21:04:16.976Z,22.92
2019-05-30T21:14:21.240Z,22.42
2019-05-30T21:24:25.344Z,21.84
2019-05-30T21:34:29.787Z,21.13
2019-05-30T21:44:34.056Z,21.13
2019-05-30T21:54:38.017Z,20.95
2019-05-30T22:04:42.491Z,20.76
2019-05-30T22:14:46.350Z,20.58
2019-05-30T22:24:50.363Z,20.46
2019-05-30T22:34:54.321Z,20.33
2019-05-30T22:44:57.893Z,20.24
2019-05-30T22:55:01.509Z,20.12
2019-05-30T23:05:06.555Z,20.04
2019-05-30T23:15:10.637Z,19.91
2019-05-30T23:25:15.815Z,19.84
2019-05-30T23:35:19.453Z,19.74
2019-05-30T23:45:23.077Z,19.63
2019-05-30T23:55:26.667Z,19.55
